Time;durP1;ratioP1;P1;durP2;ratioP2;P2;SDS_P1;SDS_P2;PMS_P1;PMS_P2;Temp;Humidity;BMP_temperature;BMP_pressure;BME280_temperature;BME280_humidity;BME280_pressure;Samples;Min_cycle;Max_cycle;Signal;HPM_P1;HPM_P2
2023/06/08 00:01:44;;;;;;;9.17;8.37;;;21.10;99.90;;;;;;4980764;28;20182;-76
2023/06/08 00:04:12;;;;;;;8.27;7.57;;;21.10;99.90;;;;;;4980888;28;20979;-75
2023/06/08 00:06:40;;;;;;;9.10;7.13;;;21.10;99.90;;;;;;4986470;28;20205;-75
2023/06/08 00:09:09;;;;;;;8.40;7.50;;;21.00;99.90;;;;;;4981177;28;20727;-76
2023/06/08 00:11:35;;;;;;;8.73;7.77;;;21.00;99.90;;;;;;5012083;28;20613;-76
2023/06/08 00:14:01;;;;;;;8.17;7.47;;;20.90;99.90;;;;;;4996934;28;20280;-76
2023/06/08 00:16:27;;;;;;;11.07;7.67;;;20.90;99.90;;;;;;4997099;28;20565;-75
2023/06/08 00:18:56;;;;;;;8.23;7.53;;;20.80;99.90;;;;;;4996649;28;20569;-76
2023/06/08 00:21:23;;;;;;;9.50;8.17;;;20.80;99.90;;;;;;5014258;28;20261;-75
2023/06/08 00:23:50;;;;;;;7.10;6.40;;;20.70;99.90;;;;;;4997014;28;21132;-75
2023/06/08 00:26:16;;;;;;;7.40;6.60;;;20.70;99.90;;;;;;5002051;28;20574;-75
2023/06/08 00:28:48;;;;;;;7.40;6.70;;;20.60;99.90;;;;;;5000026;28;20675;-75
2023/06/08 00:31:15;;;;;;;8.13;6.73;;;20.60;99.90;;;;;;5015550;28;21016;-75
2023/06/08 00:33:41;;;;;;;7.40;6.70;;;20.60;99.90;;;;;;4981227;28;20605;-75
2023/06/08 00:36:08;;;;;;;7.10;6.40;;;20.50;99.90;;;;;;5006276;28;20590;-75
2023/06/08 00:38:34;;;;;;;7.43;6.83;;;20.50;99.90;;;;;;4994558;28;20602;-75
2023/06/08 00:41:02;;;;;;;7.40;6.70;;;20.40;99.90;;;;;;5028749;28;20585;-75
2023/06/08 00:43:29;;;;;;;7.80;7.03;;;20.40;99.90;;;;;;5010749;28;20614;-76
2023/06/08 00:45:56;;;;;;;8.57;7.33;;;20.30;99.90;;;;;;4995398;28;20573;-75
2023/06/08 00:48:23;;;;;;;8.73;7.80;;;20.30;99.90;;;;;;4991246;28;20630;-75
2023/06/08 00:50:51;;;;;;;8.17;7.37;;;20.30;99.90;;;;;;5018344;28;20581;-75
2023/06/08 00:53:17;;;;;;;8.73;7.93;;;20.20;99.90;;;;;;5000922;28;20630;-75
2023/06/08 00:55:43;;;;;;;8.57;7.40;;;20.20;99.90;;;;;;4980128;28;20602;-75
2023/06/08 00:58:13;;;;;;;7.00;6.30;;;20.20;99.90;;;;;;4978384;28;20573;-76
2023/06/08 01:00:39;;;;;;;10.20;9.20;;;20.20;99.90;;;;;;4976702;28;20574;-76
2023/06/08 01:03:06;;;;;;;10.13;9.13;;;20.10;99.90;;;;;;4976208;28;21134;-76
2023/06/08 01:05:33;;;;;;;9.43;8.53;;;20.20;99.90;;;;;;4979190;28;20605;-76
2023/06/08 01:08:10;;;;;;;10.50;8.73;;;20.10;99.90;;;;;;4979331;28;20593;-75
2023/06/08 01:11:00;;;;;;;12.07;10.97;;;20.10;99.90;;;;;;5012661;28;20957;-75
2023/06/08 01:14:02;;;;;;;12.37;11.23;;;20.10;99.90;;;;;;4995395;28;20616;-75
2023/06/08 01:16:32;;;;;;;10.50;9.60;;;20.00;99.90;;;;;;5008378;28;20679;-75
2023/06/08 01:19:08;;;;;;;11.03;9.83;;;20.00;99.90;;;;;;4996669;28;20672;-75
2023/06/08 01:21:52;;;;;;;12.20;11.00;;;20.00;99.90;;;;;;4995097;28;20577;-76
2023/06/08 01:24:20;;;;;;;14.23;11.20;;;19.90;99.90;;;;;;4996534;28;21148;-76
2023/06/08 01:26:49;;;;;;;13.10;12.00;;;19.90;99.90;;;;;;5014374;28;20701;-75
2023/06/08 01:29:17;;;;;;;12.23;11.13;;;19.80;99.90;;;;;;4977630;28;20655;-76
2023/06/08 01:31:43;;;;;;;11.33;10.07;;;19.80;99.90;;;;;;5012307;28;21159;-75
2023/06/08 01:34:11;;;;;;;10.80;9.77;;;19.80;99.90;;;;;;5011293;28;20617;-75
2023/06/08 01:37:18;;;;;;;10.53;9.63;;;19.70;99.90;;;;;;4994793;28;21168;-75
2023/06/08 01:40:02;;;;;;;10.10;9.17;;;19.70;99.90;;;;;;4973075;28;20920;-76
2023/06/08 01:42:30;;;;;;;10.30;9.00;;;19.60;99.90;;;;;;5011465;28;20708;-76
2023/06/08 01:45:18;;;;;;;11.50;9.40;;;19.60;99.90;;;;;;5027474;28;20597;-75
2023/06/08 01:47:56;;;;;;;11.60;9.30;;;19.60;99.90;;;;;;5012733;28;20613;-76
2023/06/08 01:50:23;;;;;;;9.90;9.10;;;19.50;99.90;;;;;;5010333;28;20604;-75
2023/06/08 01:52:49;;;;;;;10.20;9.30;;;19.50;99.90;;;;;;4978279;28;20731;-75
2023/06/08 01:55:19;;;;;;;10.20;9.30;;;19.50;99.90;;;;;;5011012;28;20680;-74
2023/06/08 01:57:45;;;;;;;10.83;8.30;;;19.40;99.90;;;;;;5013493;28;20178;-76
2023/06/08 02:00:16;;;;;;;10.90;9.80;;;19.40;99.90;;;;;;5010165;28;20598;-76
2023/06/08 02:02:41;;;;;;;10.63;9.73;;;19.30;99.90;;;;;;4994566;28;20625;-76
2023/06/08 02:05:12;;;;;;;10.03;9.03;;;19.30;99.90;;;;;;5027051;28;20692;-75
2023/06/08 02:07:39;;;;;;;11.23;10.00;;;19.20;99.90;;;;;;5012498;28;20601;-75
2023/06/08 02:10:06;;;;;;;9.60;8.70;;;19.20;99.90;;;;;;4977975;28;20687;-75
2023/06/08 02:12:32;;;;;;;10.43;9.40;;;19.20;99.90;;;;;;5026824;28;20616;-75
2023/06/08 02:14:59;;;;;;;9.40;8.50;;;19.10;99.90;;;;;;5027589;28;20577;-76
2023/06/08 02:17:33;;;;;;;13.93;9.27;;;19.10;99.90;;;;;;5011788;28;20624;-75
2023/06/08 02:20:03;;;;;;;11.20;9.33;;;19.00;99.90;;;;;;5011949;28;20956;-75
2023/06/08 02:22:28;;;;;;;9.50;8.63;;;19.00;99.90;;;;;;5026471;28;20612;-75
2023/06/08 02:24:54;;;;;;;10.70;9.60;;;19.00;99.90;;;;;;4994139;28;20589;-75
2023/06/08 02:27:20;;;;;;;8.97;8.23;;;18.90;99.90;;;;;;5011531;28;20178;-75
2023/06/08 02:29:46;;;;;;;9.53;8.63;;;18.90;99.90;;;;;;5010370;28;20728;-75
2023/06/08 02:32:11;;;;;;;10.27;9.27;;;18.90;99.90;;;;;;4979513;28;20592;-75
2023/06/08 02:34:38;;;;;;;9.63;8.83;;;18.80;99.90;;;;;;5010879;28;20185;-75
2023/06/08 02:37:05;;;;;;;9.63;8.73;;;18.80;99.90;;;;;;5010413;28;20175;-76
2023/06/08 02:39:31;;;;;;;9.60;8.70;;;18.80;99.90;;;;;;4977625;28;20659;-75
2023/06/08 02:41:57;;;;;;;9.30;8.37;;;18.70;99.90;;;;;;5010097;28;20636;-75
2023/06/08 02:44:23;;;;;;;9.13;8.30;;;18.70;99.90;;;;;;4977428;28;20800;-75
2023/06/08 02:46:49;;;;;;;9.30;8.57;;;18.70;99.90;;;;;;4978051;28;20648;-76
2023/06/08 02:49:16;;;;;;;8.97;8.17;;;18.70;99.90;;;;;;4993143;28;20807;-76
2023/06/08 02:51:42;;;;;;;8.13;7.40;;;18.60;99.90;;;;;;5009451;28;20688;-75
2023/06/08 02:54:07;;;;;;;8.70;7.90;;;18.60;99.90;;;;;;4992805;28;20209;-75
2023/06/08 02:56:33;;;;;;;8.93;8.03;;;18.60;99.90;;;;;;5009857;28;20597;-75
2023/06/08 02:59:02;;;;;;;9.50;8.60;;;18.60;99.90;;;;;;5026383;28;20178;-75
2023/06/08 03:01:30;;;;;;;11.03;8.93;;;18.50;99.90;;;;;;5025573;28;20633;-75
2023/06/08 03:04:18;;;;;;;9.30;8.40;;;18.50;99.90;;;;;;4977634;28;20632;-75
2023/06/08 03:06:53;;;;;;;9.03;8.33;;;18.50;99.90;;;;;;5026714;28;20612;-76
2023/06/08 03:09:29;;;;;;;9.00;8.10;;;18.40;99.90;;;;;;5012524;28;20629;-75
2023/06/08 03:11:57;;;;;;;9.53;8.63;;;18.40;99.90;;;;;;5009516;28;21182;-75
2023/06/08 03:14:29;;;;;;;9.17;8.27;;;18.40;99.90;;;;;;4993669;28;20661;-75
2023/06/08 03:17:02;;;;;;;10.93;8.10;;;18.40;99.90;;;;;;5026292;28;20951;-75
2023/06/08 03:19:31;;;;;;;9.30;8.43;;;18.40;99.90;;;;;;4993950;28;20609;-75
2023/06/08 03:22:04;;;;;;;8.90;8.20;;;18.40;99.90;;;;;;5025993;28;21439;-75
2023/06/08 03:24:34;;;;;;;10.10;9.20;;;18.30;99.90;;;;;;5010143;28;20683;-76
2023/06/08 03:27:01;;;;;;;9.93;9.03;;;18.30;99.90;;;;;;4976806;28;20682;-75
2023/06/08 03:29:28;;;;;;;10.07;9.27;;;18.30;99.90;;;;;;5010037;28;20738;-75
2023/06/08 03:31:57;;;;;;;10.13;8.73;;;18.30;99.90;;;;;;4990977;28;20613;-76
2023/06/08 03:34:25;;;;;;;9.43;8.43;;;18.30;99.90;;;;;;4993040;28;20625;-76
2023/06/08 03:36:55;;;;;;;11.97;10.07;;;18.30;99.90;;;;;;5001696;28;20586;-75
2023/06/08 03:39:23;;;;;;;10.37;9.50;;;18.30;99.90;;;;;;4974134;28;20592;-75
2023/06/08 03:41:49;;;;;;;11.20;8.93;;;18.30;99.90;;;;;;4957530;28;21186;-75
2023/06/08 03:44:16;;;;;;;10.00;9.00;;;18.30;99.90;;;;;;5006342;28;20815;-75
2023/06/08 03:46:44;;;;;;;12.43;9.20;;;18.20;99.90;;;;;;4993610;28;20970;-76
2023/06/08 03:49:10;;;;;;;10.57;9.50;;;18.20;99.90;;;;;;5006078;28;20630;-76
2023/06/08 03:51:37;;;;;;;11.30;9.30;;;18.20;99.90;;;;;;4973608;28;21212;-75
2023/06/08 03:54:03;;;;;;;9.20;8.40;;;18.20;99.90;;;;;;5005987;28;20211;-75
2023/06/08 03:56:29;;;;;;;11.50;9.70;;;18.20;99.90;;;;;;4973899;28;21010;-75
2023/06/08 03:58:59;;;;;;;11.10;7.57;;;18.20;99.90;;;;;;5006272;28;20617;-75
2023/06/08 04:01:27;;;;;;;11.60;10.13;;;18.20;99.90;;;;;;4973616;28;20598;-75
2023/06/08 04:03:53;;;;;;;10.13;8.67;;;18.30;99.90;;;;;;4991022;28;20975;-76
2023/06/08 04:06:18;;;;;;;9.73;8.87;;;18.30;99.90;;;;;;4991164;28;20578;-75
2023/06/08 04:08:45;;;;;;;9.37;8.53;;;18.30;99.90;;;;;;4989907;28;20218;-75
2023/06/08 04:11:12;;;;;;;11.50;9.77;;;18.30;99.90;;;;;;5005421;28;21171;-75
2023/06/08 04:13:39;;;;;;;8.47;7.70;;;18.40;99.90;;;;;;4992158;28;20617;-75
2023/06/08 04:16:09;;;;;;;10.97;9.97;;;18.40;99.90;;;;;;5009460;28;21179;-75
2023/06/08 04:18:41;;;;;;;10.63;8.53;;;18.40;99.90;;;;;;5009617;28;20681;-76
2023/06/08 04:21:12;;;;;;;9.93;9.03;;;18.50;99.90;;;;;;5009304;28;20626;-76
2023/06/08 04:23:37;;;;;;;10.53;9.00;;;18.50;99.90;;;;;;4994727;28;20709;-75
2023/06/08 04:26:07;;;;;;;12.90;8.80;;;18.50;99.90;;;;;;4960922;28;20586;-75
2023/06/08 04:28:34;;;;;;;10.30;9.20;;;18.70;99.90;;;;;;4981228;28;20656;-75
2023/06/08 04:31:01;;;;;;;10.47;9.40;;;18.80;99.90;;;;;;5011963;28;21223;-75
2023/06/08 04:33:31;;;;;;;14.47;9.07;;;19.00;99.90;;;;;;4996290;28;20613;-75
2023/06/08 04:36:01;;;;;;;10.80;8.73;;;19.10;99.90;;;;;;5036383;23;20687;-74
2023/06/08 04:38:27;;;;;;;10.00;8.80;;;19.30;99.90;;;;;;5034940;28;20618;-74
2023/06/08 04:40:55;;;;;;;9.57;8.67;;;19.40;99.90;;;;;;5029908;28;20603;-75
2023/06/08 04:43:31;;;;;;;9.07;8.20;;;19.60;99.90;;;;;;5035038;28;20596;-75
2023/06/08 04:46:05;;;;;;;8.90;8.00;;;19.70;99.90;;;;;;5002146;28;20627;-75
2023/06/08 04:48:35;;;;;;;11.33;7.60;;;19.90;99.90;;;;;;5015196;28;20632;-76
2023/06/08 04:51:03;;;;;;;8.53;7.67;;;20.00;99.90;;;;;;4995217;28;20700;-75
2023/06/08 04:53:33;;;;;;;9.37;8.23;;;20.10;99.90;;;;;;4995605;28;20585;-75
2023/06/08 04:56:01;;;;;;;12.30;8.10;;;20.20;99.90;;;;;;5034437;28;20615;-75
2023/06/08 04:58:28;;;;;;;8.67;6.83;;;20.30;99.90;;;;;;5014521;28;20604;-75
2023/06/08 05:00:56;;;;;;;8.10;7.30;;;20.40;99.90;;;;;;5014885;28;20588;-75
2023/06/08 05:03:23;;;;;;;8.43;7.67;;;20.60;99.90;;;;;;5014282;28;20616;-75
2023/06/08 05:05:50;;;;;;;8.30;7.10;;;20.70;99.90;;;;;;5031596;28;20977;-75
2023/06/08 05:08:16;;;;;;;8.47;7.67;;;20.80;99.90;;;;;;5015411;28;20592;-74
2023/06/08 05:10:41;;;;;;;8.50;7.70;;;20.90;99.90;;;;;;5014727;28;20642;-75
2023/06/08 05:13:07;;;;;;;7.40;6.73;;;21.10;99.90;;;;;;5015220;28;20270;-75
2023/06/08 05:15:33;;;;;;;8.87;7.60;;;21.30;99.90;;;;;;5032728;28;20568;-75
2023/06/08 05:17:59;;;;;;;7.43;6.67;;;21.50;99.90;;;;;;5032844;28;20169;-76
2023/06/08 05:20:26;;;;;;;7.53;6.83;;;21.80;99.90;;;;;;5014861;28;20174;-75
2023/06/08 05:22:53;;;;;;;10.10;8.13;;;22.00;99.90;;;;;;5032243;28;20575;-75
2023/06/08 05:25:19;;;;;;;7.47;6.80;;;22.20;99.90;;;;;;5031833;28;20636;-75
2023/06/08 05:27:45;;;;;;;10.57;7.40;;;22.40;99.90;;;;;;5014579;28;20591;-75
2023/06/08 05:30:11;;;;;;;10.43;7.57;;;22.60;99.90;;;;;;5014346;28;20632;-75
2023/06/08 05:32:37;;;;;;;8.43;6.80;;;22.80;99.90;;;;;;5031168;28;20615;-75
2023/06/08 05:35:04;;;;;;;7.33;6.57;;;22.90;99.90;;;;;;5014383;28;21214;-75
2023/06/08 05:37:30;;;;;;;8.00;6.73;;;23.00;99.90;;;;;;5032137;28;20182;-75
2023/06/08 05:39:56;;;;;;;6.47;5.87;;;23.10;99.90;;;;;;5014572;28;20642;-75
2023/06/08 05:42:22;;;;;;;6.80;6.07;;;23.20;99.90;;;;;;5032091;28;20580;-75
2023/06/08 05:44:49;;;;;;;6.63;6.03;;;23.30;99.90;;;;;;5032233;28;20619;-75
2023/06/08 05:47:15;;;;;;;7.10;6.50;;;23.40;99.90;;;;;;5014225;28;20642;-75
2023/06/08 05:49:41;;;;;;;7.43;5.77;;;23.50;99.90;;;;;;5032264;28;20631;-75
2023/06/08 05:52:06;;;;;;;8.00;6.50;;;23.70;99.90;;;;;;5031579;28;20588;-75
2023/06/08 05:54:32;;;;;;;6.73;4.83;;;23.80;99.90;;;;;;5032220;28;20617;-76
2023/06/08 05:56:58;;;;;;;6.70;6.00;;;24.30;99.90;;;;;;5032282;28;20243;-75
2023/06/08 05:59:24;;;;;;;7.17;5.23;;;25.00;99.90;;;;;;5014020;28;20195;-75
2023/06/08 06:01:50;;;;;;;5.13;4.63;;;25.80;99.90;;;;;;5030572;28;20268;-75
2023/06/08 06:04:16;;;;;;;5.07;4.60;;;26.60;99.90;;;;;;5031671;28;20672;-76
2023/06/08 06:06:42;;;;;;;4.47;3.93;;;27.50;99.90;;;;;;5032192;28;21126;-76
2023/06/08 06:09:11;;;;;;;4.70;4.30;;;28.40;99.90;;;;;;5031532;28;20213;-75
2023/06/08 06:11:37;;;;;;;4.70;4.30;;;29.20;99.90;;;;;;5031821;28;20176;-76
2023/06/08 06:14:02;;;;;;;5.67;4.30;;;30.00;99.90;;;;;;5031428;28;20600;-76
2023/06/08 06:16:28;;;;;;;5.07;4.00;;;30.70;99.90;;;;;;5032120;28;20612;-77
2023/06/08 06:18:54;;;;;;;3.70;3.30;;;31.30;99.90;;;;;;5013937;28;20989;-76
2023/06/08 06:21:20;;;;;;;3.63;3.33;;;32.00;99.90;;;;;;4993919;28;20198;-77
2023/06/08 06:23:46;;;;;;;4.30;3.90;;;32.60;99.90;;;;;;5030010;28;20586;-77
2023/06/08 06:26:12;;;;;;;3.50;3.20;;;33.30;99.90;;;;;;5031418;28;20699;-78
2023/06/08 06:28:38;;;;;;;3.43;3.13;;;33.80;99.90;;;;;;5031600;28;20211;-78
2023/06/08 06:31:05;;;;;;;5.50;3.73;;;34.30;99.90;;;;;;5013084;28;20643;-78
2023/06/08 06:33:31;;;;;;;4.17;3.77;;;34.70;99.90;;;;;;5013809;28;20585;-79
2023/06/08 06:35:57;;;;;;;4.20;3.00;;;35.10;99.70;;;;;;5029763;28;21303;-78
2023/06/08 06:38:26;;;;;;;3.53;3.23;;;35.60;97.30;;;;;;4998999;28;20589;-78
2023/06/08 06:40:54;;;;;;;3.17;2.70;;;35.90;94.20;;;;;;5009947;28;20177;-78
2023/06/08 06:43:24;;;;;;;5.00;3.07;;;36.20;93.00;;;;;;5044141;28;20680;-79
2023/06/08 06:45:55;;;;;;;3.77;3.37;;;36.50;92.10;;;;;;5028744;28;20243;-77
2023/06/08 06:48:22;;;;;;;2.77;2.40;;;36.80;90.60;;;;;;5046872;28;21131;-79
2023/06/08 06:50:48;;;;;;;3.03;2.43;;;37.10;88.90;;;;;;5030092;28;20260;-79
2023/06/08 06:53:14;;;;;;;3.23;2.57;;;37.40;85.80;;;;;;5020604;28;20587;-78
2023/06/08 06:55:41;;;;;;;3.70;2.80;;;37.80;83.50;;;;;;5018280;28;20616;-79
2023/06/08 06:58:10;;;;;;;3.60;2.90;;;38.10;80.40;;;;;;5031227;28;20188;-79
2023/06/08 07:00:39;;;;;;;2.77;2.30;;;38.50;79.00;;;;;;5013595;28;20643;-78
2023/06/08 07:03:06;;;;;;;3.00;2.70;;;38.70;73.20;;;;;;5030280;28;20584;-78
2023/06/08 07:05:32;;;;;;;3.00;2.70;;;38.90;70.00;;;;;;5030660;28;20621;-77
2023/06/08 07:07:59;;;;;;;2.97;2.60;;;39.20;67.80;;;;;;5030641;28;20615;-79
2023/06/08 07:10:25;;;;;;;2.73;2.30;;;39.30;66.40;;;;;;5030970;28;20620;-79
2023/06/08 07:12:51;;;;;;;2.83;2.07;;;39.50;62.00;;;;;;5045696;28;20576;-78
2023/06/08 07:15:17;;;;;;;2.40;2.00;;;39.60;61.50;;;;;;5030683;28;20513;-79
2023/06/08 07:17:44;;;;;;;6.00;2.23;;;39.80;60.70;;;;;;5027587;28;20565;-79
2023/06/08 07:20:10;;;;;;;3.07;2.63;;;40.00;59.40;;;;;;5033621;28;20595;-79
2023/06/08 07:22:36;;;;;;;4.37;2.50;;;40.20;58.40;;;;;;5012974;28;20592;-79
2023/06/08 07:25:05;;;;;;;3.53;2.70;;;40.30;55.70;;;;;;5029935;28;20649;-79
2023/06/08 07:27:31;;;;;;;3.03;2.20;;;40.40;55.10;;;;;;5032017;28;20591;-79
2023/06/08 07:29:57;;;;;;;2.30;2.10;;;40.60;54.90;;;;;;5019302;28;20734;-74
2023/06/08 07:32:23;;;;;;;2.87;2.27;;;40.70;53.90;;;;;;5020767;28;20209;-79
2023/06/08 07:34:50;;;;;;;2.93;2.47;;;40.80;53.40;;;;;;4997034;28;20201;-74
2023/06/08 07:37:16;;;;;;;2.50;2.03;;;40.90;52.70;;;;;;5027661;28;20576;-73
2023/06/08 07:39:41;;;;;;;3.00;2.80;;;41.10;51.90;;;;;;5030541;28;20576;-74
2023/06/08 07:42:07;;;;;;;3.60;2.30;;;41.20;50.30;;;;;;5012369;28;20170;-72
2023/06/08 07:44:34;;;;;;;2.60;1.93;;;41.20;50.60;;;;;;5030548;28;20807;-75
2023/06/08 07:47:00;;;;;;;3.30;2.63;;;41.30;50.20;;;;;;5031725;28;20576;-74
2023/06/08 07:49:29;;;;;;;2.60;2.20;;;41.30;49.40;;;;;;5034407;28;20244;-74
2023/06/08 07:51:55;;;;;;;2.10;1.80;;;41.30;48.40;;;;;;5015705;28;20909;-74
2023/06/08 07:54:24;;;;;;;4.43;2.33;;;41.40;49.00;;;;;;5033328;28;20618;-74
2023/06/08 07:56:50;;;;;;;2.20;1.77;;;41.40;47.50;;;;;;5016173;28;20561;-74
2023/06/08 07:59:16;;;;;;;3.90;2.50;;;41.20;47.40;;;;;;5032981;28;20575;-74
2023/06/08 08:01:42;;;;;;;1.97;1.77;;;41.10;46.10;;;;;;5033951;28;20497;-73
2023/06/08 08:04:09;;;;;;;3.87;2.70;;;40.90;45.90;;;;;;5016033;28;21164;-74
2023/06/08 08:06:35;;;;;;;3.53;2.50;;;40.70;43.80;;;;;;5034191;28;20580;-74
2023/06/08 08:09:01;;;;;;;2.67;2.47;;;40.20;44.00;;;;;;5033733;28;20623;-74
2023/06/08 08:11:27;;;;;;;3.37;3.07;;;39.70;43.30;;;;;;5015964;28;20572;-74
2023/06/08 08:13:54;;;;;;;2.63;2.33;;;39.50;44.00;;;;;;5015369;28;21220;-74
2023/06/08 08:16:20;;;;;;;3.63;3.23;;;39.50;44.80;;;;;;5033936;28;20181;-74
2023/06/08 08:18:46;;;;;;;3.70;2.90;;;39.70;44.60;;;;;;5015892;28;20687;-75
2023/06/08 08:21:12;;;;;;;3.10;2.47;;;39.50;43.50;;;;;;4999615;28;20191;-75
2023/06/08 08:23:39;;;;;;;4.00;2.47;;;39.30;44.20;;;;;;5015768;28;20216;-74
2023/06/08 08:26:05;;;;;;;2.90;2.60;;;39.40;44.70;;;;;;5033749;28;20659;-75
2023/06/08 08:28:30;;;;;;;2.93;2.63;;;39.60;45.30;;;;;;5033582;28;21198;-73
2023/06/08 08:30:56;;;;;;;3.03;2.60;;;39.90;45.20;;;;;;5033019;28;20173;-73
2023/06/08 08:33:22;;;;;;;3.63;2.17;;;40.20;45.00;;;;;;5033921;28;20256;-73
2023/06/08 08:35:47;;;;;;;2.90;2.30;;;40.40;44.70;;;;;;5015168;28;20239;-74
2023/06/08 08:38:13;;;;;;;2.73;2.30;;;40.20;43.10;;;;;;5032353;28;20185;-73
2023/06/08 08:40:42;;;;;;;3.10;2.80;;;39.40;41.70;;;;;;5031648;28;20176;-73
2023/06/08 08:43:23;;;;;;;3.13;2.83;;;38.60;41.40;;;;;;5015490;28;20215;-73
2023/06/08 08:45:50;;;;;;;8.10;2.70;;;38.10;42.20;;;;;;5013629;28;21207;-74
2023/06/08 08:48:19;;;;;;;4.60;2.40;;;38.00;43.10;;;;;;5011676;28;20612;-73
2023/06/08 08:50:59;;;;;;;3.00;2.67;;;38.00;43.70;;;;;;5011410;28;20580;-73
2023/06/08 08:53:30;;;;;;;2.17;1.97;;;38.10;44.40;;;;;;5029672;28;20603;-74
2023/06/08 08:56:03;;;;;;;3.00;2.50;;;38.30;44.60;;;;;;4995857;28;21224;-74
2023/06/08 08:58:30;;;;;;;3.60;2.80;;;38.50;44.10;;;;;;5011058;28;21196;-74
2023/06/08 09:00:56;;;;;;;3.40;2.97;;;38.80;44.50;;;;;;5029701;28;20603;-74
2023/06/08 09:03:22;;;;;;;2.63;2.43;;;39.10;43.70;;;;;;5032180;28;20947;-73
2023/06/08 09:05:51;;;;;;;2.57;2.37;;;39.40;43.80;;;;;;5015288;28;20666;-73
2023/06/08 09:08:17;;;;;;;3.20;2.87;;;39.70;43.20;;;;;;5011324;28;20182;-74
2023/06/08 09:10:59;;;;;;;2.73;2.37;;;39.50;41.40;;;;;;5028689;28;21182;-75
2023/06/08 09:13:25;;;;;;;3.33;3.03;;;39.40;42.70;;;;;;5014492;28;20585;-74
2023/06/08 09:15:51;;;;;;;2.77;2.57;;;39.40;42.30;;;;;;5031549;28;20620;-73
2023/06/08 09:18:18;;;;;;;3.37;2.50;;;39.50;42.80;;;;;;5032595;28;20545;-74
2023/06/08 09:20:45;;;;;;;2.80;2.50;;;39.90;43.00;;;;;;5031444;28;20548;-74
2023/06/08 09:23:16;;;;;;;2.20;1.90;;;40.30;43.10;;;;;;5032203;28;20557;-74
2023/06/08 09:25:41;;;;;;;3.40;2.40;;;40.80;42.80;;;;;;5014737;28;20619;-74
2023/06/08 09:28:28;;;;;;;2.40;2.20;;;41.10;41.80;;;;;;5014837;28;20569;-75
2023/06/08 09:30:57;;;;;;;2.57;2.33;;;41.50;42.10;;;;;;5014605;28;20189;-74
2023/06/08 09:33:26;;;;;;;2.73;2.50;;;41.80;41.20;;;;;;5014864;28;20703;-74
2023/06/08 09:36:15;;;;;;;4.60;2.20;;;41.80;40.10;;;;;;5031454;28;20624;-74
2023/06/08 09:38:42;;;;;;;1.90;1.70;;;42.00;40.40;;;;;;5032702;28;20587;-73
2023/06/08 09:41:22;;;;;;;3.23;2.97;;;41.90;40.20;;;;;;5031555;28;20588;-74
2023/06/08 09:43:50;;;;;;;3.57;2.63;;;41.70;36.90;;;;;;5032325;28;20691;-73
2023/06/08 09:46:35;;;;;;;3.40;2.10;;;41.50;39.40;;;;;;5014030;28;20608;-74
2023/06/08 09:49:06;;;;;;;3.80;2.43;;;41.10;35.60;;;;;;5032471;28;20723;-73
2023/06/08 09:51:36;;;;;;;3.37;2.27;;;40.60;38.20;;;;;;5031631;28;21139;-74
2023/06/08 09:54:03;;;;;;;2.50;2.30;;;40.40;38.90;;;;;;5032121;28;20679;-74
2023/06/08 09:56:30;;;;;;;3.50;2.20;;;40.30;38.90;;;;;;5031661;28;21143;-74
2023/06/08 09:58:57;;;;;;;2.90;2.37;;;40.30;40.00;;;;;;5014461;28;20651;-74
2023/06/08 10:01:46;;;;;;;2.10;1.80;;;40.60;40.30;;;;;;5013383;28;20595;-73
2023/06/08 10:04:36;;;;;;;2.97;2.00;;;40.90;39.90;;;;;;5029576;28;21131;-73
2023/06/08 10:07:06;;;;;;;2.67;2.30;;;41.10;40.10;;;;;;5022408;28;20588;-73
2023/06/08 10:09:36;;;;;;;2.43;1.90;;;41.40;40.60;;;;;;5031868;28;20651;-73
2023/06/08 10:12:02;;;;;;;2.10;1.90;;;41.70;40.00;;;;;;5013312;28;20580;-74
2023/06/08 10:14:28;;;;;;;2.27;2.07;;;42.10;39.90;;;;;;5014173;28;20715;-74
2023/06/08 10:16:56;;;;;;;2.83;1.60;;;42.30;39.40;;;;;;5031399;28;20572;-74
2023/06/08 10:19:23;;;;;;;2.70;1.83;;;42.70;39.10;;;;;;5014045;28;20592;-74
2023/06/08 10:21:51;;;;;;;2.23;2.00;;;42.90;38.30;;;;;;5013673;28;20620;-74
2023/06/08 10:24:21;;;;;;;4.93;2.10;;;42.50;36.60;;;;;;5031305;28;20580;-74
2023/06/08 10:26:50;;;;;;;2.63;1.90;;;41.50;35.30;;;;;;5031501;28;20585;-73
2023/06/08 10:29:17;;;;;;;3.80;2.60;;;40.50;35.80;;;;;;5031154;28;20628;-73
2023/06/08 10:31:47;;;;;;;3.13;2.83;;;39.50;36.00;;;;;;5013495;28;21034;-73
2023/06/08 10:34:14;;;;;;;3.67;2.30;;;38.60;36.20;;;;;;5013063;28;20929;-73
2023/06/08 10:36:42;;;;;;;3.53;2.90;;;37.60;36.70;;;;;;5030140;28;20584;-74
2023/06/08 10:39:12;;;;;;;3.50;3.10;;;36.70;37.40;;;;;;5013219;28;20577;-73
2023/06/08 10:41:44;;;;;;;3.43;3.10;;;35.80;38.00;;;;;;5031100;28;20571;-74
2023/06/08 10:44:40;;;;;;;5.10;2.90;;;35.30;39.50;;;;;;5030901;28;21137;-73
2023/06/08 10:47:10;;;;;;;3.87;2.80;;;35.00;40.80;;;;;;5013670;28;20671;-74
2023/06/08 10:49:38;;;;;;;3.30;3.00;;;35.00;41.70;;;;;;5030722;28;20673;-74
2023/06/08 10:52:10;;;;;;;5.40;3.10;;;35.10;41.80;;;;;;5013162;28;20683;-74
2023/06/08 10:54:57;;;;;;;3.30;2.83;;;35.00;41.80;;;;;;5030866;28;20650;-74
2023/06/08 10:57:42;;;;;;;2.87;2.47;;;35.00;42.00;;;;;;5031187;28;21002;-74
2023/06/08 11:00:27;;;;;;;2.77;2.57;;;35.30;43.20;;;;;;5029245;28;20592;-74
2023/06/08 11:02:53;;;;;;;3.30;3.00;;;35.30;42.10;;;;;;5012315;28;20623;-74
2023/06/08 11:05:20;;;;;;;2.63;2.27;;;35.50;43.40;;;;;;5030629;28;20696;-75
2023/06/08 11:07:46;;;;;;;3.60;2.13;;;35.80;43.40;;;;;;5013409;28;21140;-75
2023/06/08 11:10:11;;;;;;;3.00;2.70;;;36.10;43.00;;;;;;5012735;28;20655;-74
2023/06/08 11:12:37;;;;;;;5.60;3.67;;;36.30;43.00;;;;;;5012872;28;20166;-74
2023/06/08 11:15:03;;;;;;;3.03;2.23;;;36.70;42.60;;;;;;5030901;28;20297;-73
2023/06/08 11:17:31;;;;;;;2.70;2.40;;;37.10;42.40;;;;;;5013023;28;20165;-74
2023/06/08 11:20:01;;;;;;;2.60;2.40;;;37.50;43.10;;;;;;5030637;28;20572;-73
2023/06/08 11:22:26;;;;;;;2.40;2.20;;;37.90;42.90;;;;;;5031526;28;21132;-74
2023/06/08 11:24:52;;;;;;;2.80;2.60;;;38.40;42.60;;;;;;5017069;28;20670;-74
2023/06/08 11:27:18;;;;;;;3.80;3.33;;;38.60;41.10;;;;;;5016629;28;20528;-74
2023/06/08 11:29:47;;;;;;;2.87;2.53;;;38.70;40.80;;;;;;5034666;28;20220;-74
2023/06/08 11:32:17;;;;;;;2.50;2.13;;;38.70;40.10;;;;;;5016548;28;20173;-74
2023/06/08 11:34:49;;;;;;;3.47;2.60;;;38.50;40.10;;;;;;5034385;28;20635;-73
2023/06/08 11:37:16;;;;;;;3.00;2.70;;;38.40;40.40;;;;;;5034346;28;20612;-73
2023/06/08 11:39:47;;;;;;;2.93;2.73;;;38.10;39.80;;;;;;5033360;28;20654;-74
2023/06/08 11:42:13;;;;;;;3.50;2.90;;;38.10;39.90;;;;;;5016728;28;20650;-74
2023/06/08 11:44:39;;;;;;;6.23;2.20;;;38.10;40.50;;;;;;5016409;28;21195;-74
2023/06/08 11:47:06;;;;;;;2.73;2.53;;;38.00;40.30;;;;;;5034629;28;20706;-75
2023/06/08 11:49:55;;;;;;;4.50;3.90;;;37.90;39.90;;;;;;5016107;28;20205;-74
2023/06/08 11:52:24;;;;;;;3.27;2.97;;;37.70;39.60;;;;;;5016506;28;21124;-74
2023/06/08 11:54:54;;;;;;;2.90;2.70;;;37.50;39.30;;;;;;5033716;28;20665;-74
2023/06/08 11:57:21;;;;;;;3.37;3.07;;;37.40;39.90;;;;;;5028228;28;20605;-73
2023/06/08 11:59:47;;;;;;;3.30;2.87;;;37.20;39.30;;;;;;5031682;28;20576;-74
2023/06/08 12:02:13;;;;;;;3.10;2.80;;;36.90;39.00;;;;;;5016856;28;20595;-75
2023/06/08 12:04:41;;;;;;;5.10;2.77;;;36.60;39.60;;;;;;5016269;28;20619;-74
2023/06/08 12:07:11;;;;;;;4.50;2.90;;;36.60;40.20;;;;;;5034458;28;20575;-74
2023/06/08 12:09:38;;;;;;;3.43;3.00;;;36.50;40.10;;;;;;5033188;28;20639;-74
2023/06/08 12:12:11;;;;;;;2.87;2.67;;;36.50;40.70;;;;;;5016485;28;20620;-74
2023/06/08 12:14:46;;;;;;;2.70;2.50;;;36.60;40.30;;;;;;5016100;28;20608;-74
2023/06/08 12:17:16;;;;;;;4.60;2.50;;;36.60;39.80;;;;;;5016374;28;20580;-74
2023/06/08 12:19:45;;;;;;;3.00;2.20;;;36.60;39.90;;;;;;5033961;28;21153;-74
2023/06/08 12:22:14;;;;;;;2.93;2.60;;;36.80;39.90;;;;;;5033431;28;20605;-74
2023/06/08 12:24:40;;;;;;;3.00;2.70;;;36.90;39.90;;;;;;5016156;28;20635;-74
2023/06/08 12:27:06;;;;;;;2.80;2.50;;;36.90;39.70;;;;;;5015563;28;20595;-74
2023/06/08 12:29:33;;;;;;;3.27;2.73;;;36.90;39.20;;;;;;5015956;28;20643;-74
2023/06/08 12:31:59;;;;;;;3.17;2.37;;;36.80;39.10;;;;;;5015470;28;20564;-74
2023/06/08 12:34:26;;;;;;;3.40;2.50;;;36.70;39.70;;;;;;5032159;28;21115;-74
2023/06/08 12:36:52;;;;;;;4.43;2.87;;;36.80;39.90;;;;;;5033430;28;20642;-74
2023/06/08 12:39:18;;;;;;;3.67;3.37;;;36.90;40.00;;;;;;5016134;28;20611;-75
2023/06/08 12:41:43;;;;;;;3.77;3.47;;;36.90;39.90;;;;;;5015574;28;20174;-75
2023/06/08 12:44:10;;;;;;;3.97;2.80;;;36.90;40.00;;;;;;5032371;28;20708;-74
2023/06/08 12:46:36;;;;;;;3.40;3.10;;;36.80;39.80;;;;;;5015951;28;20268;-74
2023/06/08 12:49:05;;;;;;;8.47;4.13;;;36.70;39.50;;;;;;5032447;28;20979;-74
2023/06/08 12:51:31;;;;;;;2.93;2.63;;;36.40;39.40;;;;;;5016005;28;20594;-75
2023/06/08 12:53:56;;;;;;;3.67;3.20;;;36.10;39.40;;;;;;5033025;28;20584;-75